sensor_id;sensor_type;location;lat;lon;timestamp;temperature;humidity
3860;DHT22;1945;52.036;8.614;2023-04-23T00:00:47;13.50;1.00
3860;DHT22;1945;52.036;8.614;2023-04-23T00:03:16;13.40;1.00
3860;DHT22;1945;52.036;8.614;2023-04-23T00:05:44;13.40;1.00
3860;DHT22;1945;52.036;8.614;2023-04-23T00:08:13;13.20;1.00
3860;DHT22;1945;52.036;8.614;2023-04-23T00:10:43;13.20;1.00
3860;DHT22;1945;52.036;8.614;2023-04-23T00:13:10;13.20;1.00
3860;DHT22;1945;52.036;8.614;2023-04-23T00:15:37;13.10;1.00
3860;DHT22;1945;52.036;8.614;2023-04-23T00:18:04;13.00;1.00
3860;DHT22;1945;52.036;8.614;2023-04-23T00:20:31;13.10;1.00
3860;DHT22;1945;52.036;8.614;2023-04-23T00:22:58;12.90;1.00
3860;DHT22;1945;52.036;8.614;2023-04-23T00:25:26;12.90;1.00
3860;DHT22;1945;52.036;8.614;2023-04-23T00:27:53;12.90;1.00
3860;DHT22;1945;52.036;8.614;2023-04-23T00:30:20;12.80;1.00
3860;DHT22;1945;52.036;8.614;2023-04-23T00:32:47;12.70;1.00
3860;DHT22;1945;52.036;8.614;2023-04-23T00:35:13;12.80;1.00
3860;DHT22;1945;52.036;8.614;2023-04-23T00:37:40;12.70;1.00
3860;DHT22;1945;52.036;8.614;2023-04-23T00:40:08;12.70;1.00
3860;DHT22;1945;52.036;8.614;2023-04-23T00:42:38;12.70;1.00
3860;DHT22;1945;52.036;8.614;2023-04-23T00:45:06;12.70;1.00
3860;DHT22;1945;52.036;8.614;2023-04-23T00:47:33;12.60;1.00
3860;DHT22;1945;52.036;8.614;2023-04-23T00:50:00;12.60;1.00
3860;DHT22;1945;52.036;8.614;2023-04-23T00:52:27;12.60;1.00
3860;DHT22;1945;52.036;8.614;2023-04-23T00:54:54;12.50;1.00
3860;DHT22;1945;52.036;8.614;2023-04-23T00:57:22;12.40;1.00
3860;DHT22;1945;52.036;8.614;2023-04-23T00:59:50;12.50;1.00
3860;DHT22;1945;52.036;8.614;2023-04-23T01:02:17;12.50;1.00
3860;DHT22;1945;52.036;8.614;2023-04-23T01:04:44;12.40;1.00
3860;DHT22;1945;52.036;8.614;2023-04-23T01:07:11;12.40;1.00
3860;DHT22;1945;52.036;8.614;2023-04-23T01:09:38;12.30;1.00
3860;DHT22;1945;52.036;8.614;2023-04-23T01:12:06;12.30;1.00
3860;DHT22;1945;52.036;8.614;2023-04-23T01:14:33;12.30;1.00
3860;DHT22;1945;52.036;8.614;2023-04-23T01:17:01;12.30;1.00
3860;DHT22;1945;52.036;8.614;2023-04-23T01:19:28;12.30;1.00
3860;DHT22;1945;52.036;8.614;2023-04-23T01:21:55;12.20;1.00
3860;DHT22;1945;52.036;8.614;2023-04-23T01:24:27;12.20;1.00
3860;DHT22;1945;52.036;8.614;2023-04-23T01:26:54;12.20;1.00
3860;DHT22;1945;52.036;8.614;2023-04-23T01:29:23;12.30;1.00
3860;DHT22;1945;52.036;8.614;2023-04-23T01:31:50;12.20;1.00
3860;DHT22;1945;52.036;8.614;2023-04-23T01:34:19;12.20;1.00
3860;DHT22;1945;52.036;8.614;2023-04-23T01:36:46;12.10;1.00
3860;DHT22;1945;52.036;8.614;2023-04-23T01:39:13;12.10;1.00
3860;DHT22;1945;52.036;8.614;2023-04-23T01:41:42;12.10;1.00
3860;DHT22;1945;52.036;8.614;2023-04-23T01:44:09;12.00;1.00
3860;DHT22;1945;52.036;8.614;2023-04-23T01:46:35;12.00;1.00
3860;DHT22;1945;52.036;8.614;2023-04-23T01:49:02;12.10;1.00
3860;DHT22;1945;52.036;8.614;2023-04-23T01:51:29;12.00;1.00
3860;DHT22;1945;52.036;8.614;2023-04-23T01:53:56;12.10;1.00
3860;DHT22;1945;52.036;8.614;2023-04-23T01:56:25;12.10;1.00
3860;DHT22;1945;52.036;8.614;2023-04-23T01:58:53;12.00;1.00
3860;DHT22;1945;52.036;8.614;2023-04-23T02:01:20;12.10;1.00
3860;DHT22;1945;52.036;8.614;2023-04-23T02:03:48;12.10;1.00
3860;DHT22;1945;52.036;8.614;2023-04-23T02:06:15;12.00;1.00
3860;DHT22;1945;52.036;8.614;2023-04-23T02:08:42;12.00;1.00
3860;DHT22;1945;52.036;8.614;2023-04-23T02:11:09;12.00;1.00
3860;DHT22;1945;52.036;8.614;2023-04-23T02:13:35;12.00;1.00
3860;DHT22;1945;52.036;8.614;2023-04-23T02:16:04;12.00;1.00
3860;DHT22;1945;52.036;8.614;2023-04-23T02:18:31;12.00;1.00
3860;DHT22;1945;52.036;8.614;2023-04-23T02:20:57;12.00;1.00
3860;DHT22;1945;52.036;8.614;2023-04-23T02:23:24;12.00;1.00
3860;DHT22;1945;52.036;8.614;2023-04-23T02:25:51;11.90;1.00
3860;DHT22;1945;52.036;8.614;2023-04-23T02:28:17;11.90;1.00
3860;DHT22;1945;52.036;8.614;2023-04-23T02:30:44;11.90;1.00
3860;DHT22;1945;52.036;8.614;2023-04-23T02:33:13;11.90;1.00
3860;DHT22;1945;52.036;8.614;2023-04-23T02:35:40;11.90;1.00
3860;DHT22;1945;52.036;8.614;2023-04-23T02:38:06;11.80;1.00
3860;DHT22;1945;52.036;8.614;2023-04-23T02:40:33;11.80;1.00
3860;DHT22;1945;52.036;8.614;2023-04-23T02:43:00;11.70;1.00
3860;DHT22;1945;52.036;8.614;2023-04-23T02:45:27;11.60;1.00
3860;DHT22;1945;52.036;8.614;2023-04-23T02:47:54;11.60;1.00
3860;DHT22;1945;52.036;8.614;2023-04-23T02:50:22;11.50;1.00
3860;DHT22;1945;52.036;8.614;2023-04-23T02:52:48;11.40;1.00
3860;DHT22;1945;52.036;8.614;2023-04-23T02:55:15;11.40;1.00
3860;DHT22;1945;52.036;8.614;2023-04-23T02:57:42;11.40;1.00
3860;DHT22;1945;52.036;8.614;2023-04-23T03:00:10;11.80;1.00
3860;DHT22;1945;52.036;8.614;2023-04-23T03:02:39;11.20;1.00
3860;DHT22;1945;52.036;8.614;2023-04-23T03:05:06;11.20;1.00
3860;DHT22;1945;52.036;8.614;2023-04-23T03:07:34;11.20;1.00
3860;DHT22;1945;52.036;8.614;2023-04-23T03:10:01;11.20;1.00
3860;DHT22;1945;52.036;8.614;2023-04-23T03:12:27;11.10;1.00
3860;DHT22;1945;52.036;8.614;2023-04-23T03:14:54;11.10;1.00
3860;DHT22;1945;52.036;8.614;2023-04-23T03:17:21;11.10;1.00
3860;DHT22;1945;52.036;8.614;2023-04-23T03:19:47;11.50;1.00
3860;DHT22;1945;52.036;8.614;2023-04-23T03:22:14;11.10;1.00
3860;DHT22;1945;52.036;8.614;2023-04-23T03:24:42;11.10;1.00
3860;DHT22;1945;52.036;8.614;2023-04-23T03:27:09;11.10;1.00
3860;DHT22;1945;52.036;8.614;2023-04-23T03:29:35;11.00;1.00
3860;DHT22;1945;52.036;8.614;2023-04-23T03:32:02;11.00;1.00
3860;DHT22;1945;52.036;8.614;2023-04-23T03:34:29;11.00;1.00
3860;DHT22;1945;52.036;8.614;2023-04-23T03:36:55;11.40;1.00
3860;DHT22;1945;52.036;8.614;2023-04-23T03:39:22;11.10;1.00
3860;DHT22;1945;52.036;8.614;2023-04-23T03:41:50;11.10;1.00
3860;DHT22;1945;52.036;8.614;2023-04-23T03:44:16;11.00;1.00
3860;DHT22;1945;52.036;8.614;2023-04-23T03:46:43;11.00;1.00
3860;DHT22;1945;52.036;8.614;2023-04-23T03:49:10;11.00;1.00
3860;DHT22;1945;52.036;8.614;2023-04-23T03:51:36;11.00;1.00
3860;DHT22;1945;52.036;8.614;2023-04-23T03:54:03;10.90;1.00
3860;DHT22;1945;52.036;8.614;2023-04-23T03:56:30;11.00;1.00
3860;DHT22;1945;52.036;8.614;2023-04-23T03:58:58;10.90;1.00
3860;DHT22;1945;52.036;8.614;2023-04-23T04:01:24;10.90;1.00
3860;DHT22;1945;52.036;8.614;2023-04-23T04:03:51;11.30;1.00
3860;DHT22;1945;52.036;8.614;2023-04-23T04:06:18;10.90;1.00
3860;DHT22;1945;52.036;8.614;2023-04-23T04:08:44;10.80;1.00
3860;DHT22;1945;52.036;8.614;2023-04-23T04:11:11;10.90;1.00
3860;DHT22;1945;52.036;8.614;2023-04-23T04:13:38;10.90;1.00
3860;DHT22;1945;52.036;8.614;2023-04-23T04:16:06;11.10;1.00
3860;DHT22;1945;52.036;8.614;2023-04-23T04:18:33;10.70;1.00
3860;DHT22;1945;52.036;8.614;2023-04-23T04:21:00;11.10;1.00
3860;DHT22;1945;52.036;8.614;2023-04-23T04:23:26;10.60;1.00
3860;DHT22;1945;52.036;8.614;2023-04-23T04:25:53;10.70;1.00
3860;DHT22;1945;52.036;8.614;2023-04-23T04:28:22;10.70;1.00
3860;DHT22;1945;52.036;8.614;2023-04-23T04:30:49;10.80;1.00
3860;DHT22;1945;52.036;8.614;2023-04-23T04:33:17;11.10;1.00
3860;DHT22;1945;52.036;8.614;2023-04-23T04:35:44;10.80;1.00
3860;DHT22;1945;52.036;8.614;2023-04-23T04:38:13;11.10;1.00
3860;DHT22;1945;52.036;8.614;2023-04-23T04:40:40;10.80;1.00
3860;DHT22;1945;52.036;8.614;2023-04-23T04:43:07;10.80;1.00
3860;DHT22;1945;52.036;8.614;2023-04-23T04:45:34;10.70;1.00
3860;DHT22;1945;52.036;8.614;2023-04-23T04:48:01;10.60;1.00
3860;DHT22;1945;52.036;8.614;2023-04-23T04:50:29;11.10;1.00
3860;DHT22;1945;52.036;8.614;2023-04-23T04:52:55;10.70;1.00
3860;DHT22;1945;52.036;8.614;2023-04-23T04:55:22;10.60;1.00
3860;DHT22;1945;52.036;8.614;2023-04-23T04:57:49;10.70;1.00
3860;DHT22;1945;52.036;8.614;2023-04-23T05:00:21;10.70;1.00
3860;DHT22;1945;52.036;8.614;2023-04-23T05:02:48;10.70;1.00
3860;DHT22;1945;52.036;8.614;2023-04-23T05:05:16;10.70;1.00
3860;DHT22;1945;52.036;8.614;2023-04-23T05:07:44;10.80;1.00
3860;DHT22;1945;52.036;8.614;2023-04-23T05:10:11;10.80;1.00
3860;DHT22;1945;52.036;8.614;2023-04-23T05:12:38;10.80;1.00
3860;DHT22;1945;52.036;8.614;2023-04-23T05:15:07;10.80;1.00
3860;DHT22;1945;52.036;8.614;2023-04-23T05:17:34;10.80;1.00
3860;DHT22;1945;52.036;8.614;2023-04-23T05:20:01;10.90;1.00
3860;DHT22;1945;52.036;8.614;2023-04-23T05:22:27;10.90;1.00
3860;DHT22;1945;52.036;8.614;2023-04-23T05:24:56;10.90;1.00
3860;DHT22;1945;52.036;8.614;2023-04-23T05:27:23;10.90;1.00
3860;DHT22;1945;52.036;8.614;2023-04-23T05:29:49;10.90;1.00
3860;DHT22;1945;52.036;8.614;2023-04-23T05:32:16;10.90;1.00
3860;DHT22;1945;52.036;8.614;2023-04-23T05:34:43;11.00;1.00
3860;DHT22;1945;52.036;8.614;2023-04-23T05:37:09;11.00;1.00
3860;DHT22;1945;52.036;8.614;2023-04-23T05:39:36;11.00;1.00
3860;DHT22;1945;52.036;8.614;2023-04-23T05:42:05;11.00;1.00
3860;DHT22;1945;52.036;8.614;2023-04-23T05:44:32;11.10;1.00
3860;DHT22;1945;52.036;8.614;2023-04-23T05:46:58;11.10;1.00
3860;DHT22;1945;52.036;8.614;2023-04-23T05:49:25;11.10;1.00
3860;DHT22;1945;52.036;8.614;2023-04-23T05:51:52;11.20;1.00
3860;DHT22;1945;52.036;8.614;2023-04-23T05:54:19;11.30;1.00
3860;DHT22;1945;52.036;8.614;2023-04-23T05:56:46;11.30;1.00
3860;DHT22;1945;52.036;8.614;2023-04-23T05:59:13;11.30;1.00
3860;DHT22;1945;52.036;8.614;2023-04-23T06:01:40;11.30;1.00
3860;DHT22;1945;52.036;8.614;2023-04-23T06:04:07;11.30;1.00
3860;DHT22;1945;52.036;8.614;2023-04-23T06:06:34;11.40;1.00
3860;DHT22;1945;52.036;8.614;2023-04-23T06:09:01;11.50;1.00
3860;DHT22;1945;52.036;8.614;2023-04-23T06:11:29;11.50;1.00
3860;DHT22;1945;52.036;8.614;2023-04-23T06:13:56;11.70;1.00
3860;DHT22;1945;52.036;8.614;2023-04-23T06:16:24;11.70;1.00
3860;DHT22;1945;52.036;8.614;2023-04-23T06:18:51;11.60;1.00
3860;DHT22;1945;52.036;8.614;2023-04-23T06:21:18;11.70;1.00
3860;DHT22;1945;52.036;8.614;2023-04-23T06:23:45;12.00;1.00
3860;DHT22;1945;52.036;8.614;2023-04-23T06:26:12;11.80;1.00
3860;DHT22;1945;52.036;8.614;2023-04-23T06:28:39;12.50;1.00
3860;DHT22;1945;52.036;8.614;2023-04-23T06:31:06;13.40;99.90
3860;DHT22;1945;52.036;8.614;2023-04-23T06:33:34;13.90;99.90
3860;DHT22;1945;52.036;8.614;2023-04-23T06:36:01;14.10;99.90
3860;DHT22;1945;52.036;8.614;2023-04-23T06:38:28;14.50;99.90
3860;DHT22;1945;52.036;8.614;2023-04-23T06:40:55;15.00;99.90
3860;DHT22;1945;52.036;8.614;2023-04-23T06:43:22;15.10;65.70
3860;DHT22;1945;52.036;8.614;2023-04-23T06:45:48;15.40;99.90
3860;DHT22;1945;52.036;8.614;2023-04-23T06:48:15;15.50;1.00
3860;DHT22;1945;52.036;8.614;2023-04-23T06:50:44;15.90;1.00
3860;DHT22;1945;52.036;8.614;2023-04-23T06:53:11;16.10;1.00
3860;DHT22;1945;52.036;8.614;2023-04-23T06:55:38;16.20;1.00
3860;DHT22;1945;52.036;8.614;2023-04-23T06:58:04;16.50;1.00
3860;DHT22;1945;52.036;8.614;2023-04-23T07:00:32;16.30;1.00
3860;DHT22;1945;52.036;8.614;2023-04-23T07:02:59;16.20;1.00
3860;DHT22;1945;52.036;8.614;2023-04-23T07:05:25;16.20;1.00
3860;DHT22;1945;52.036;8.614;2023-04-23T07:07:53;16.80;1.00
3860;DHT22;1945;52.036;8.614;2023-04-23T07:10:20;16.90;1.00
3860;DHT22;1945;52.036;8.614;2023-04-23T07:12:48;17.20;1.00
3860;DHT22;1945;52.036;8.614;2023-04-23T07:15:15;17.50;1.00
3860;DHT22;1945;52.036;8.614;2023-04-23T07:17:42;17.50;1.00
3860;DHT22;1945;52.036;8.614;2023-04-23T07:20:08;17.90;1.00
3860;DHT22;1945;52.036;8.614;2023-04-23T07:22:35;18.20;1.00
3860;DHT22;1945;52.036;8.614;2023-04-23T07:25:04;18.20;1.00
3860;DHT22;1945;52.036;8.614;2023-04-23T07:27:32;18.20;99.90
3860;DHT22;1945;52.036;8.614;2023-04-23T07:29:59;18.70;99.90
3860;DHT22;1945;52.036;8.614;2023-04-23T07:32:27;18.90;99.90
3860;DHT22;1945;52.036;8.614;2023-04-23T07:34:54;18.80;99.90
3860;DHT22;1945;52.036;8.614;2023-04-23T07:37:21;18.30;99.90
3860;DHT22;1945;52.036;8.614;2023-04-23T07:39:48;18.30;99.90
3860;DHT22;1945;52.036;8.614;2023-04-23T07:42:16;18.10;99.90
3860;DHT22;1945;52.036;8.614;2023-04-23T07:44:43;18.40;99.90
3860;DHT22;1945;52.036;8.614;2023-04-23T07:47:09;18.50;99.90
3860;DHT22;1945;52.036;8.614;2023-04-23T07:49:36;19.10;99.90
3860;DHT22;1945;52.036;8.614;2023-04-23T07:52:03;19.70;99.90
3860;DHT22;1945;52.036;8.614;2023-04-23T07:54:30;19.30;99.90
3860;DHT22;1945;52.036;8.614;2023-04-23T07:56:57;19.80;99.90
3860;DHT22;1945;52.036;8.614;2023-04-23T07:59:25;19.70;99.90
3860;DHT22;1945;52.036;8.614;2023-04-23T08:01:51;19.60;99.90
3860;DHT22;1945;52.036;8.614;2023-04-23T08:04:18;19.80;91.20
3860;DHT22;1945;52.036;8.614;2023-04-23T08:06:45;20.30;92.40
3860;DHT22;1945;52.036;8.614;2023-04-23T08:09:12;19.70;43.10
3860;DHT22;1945;52.036;8.614;2023-04-23T08:11:39;19.90;74.30
3860;DHT22;1945;52.036;8.614;2023-04-23T08:14:06;20.00;65.70
3860;DHT22;1945;52.036;8.614;2023-04-23T08:16:34;20.10;92.40
3860;DHT22;1945;52.036;8.614;2023-04-23T08:19:01;19.90;80.80
3860;DHT22;1945;52.036;8.614;2023-04-23T08:21:29;19.70;99.90
3860;DHT22;1945;52.036;8.614;2023-04-23T08:23:56;19.60;99.90
3860;DHT22;1945;52.036;8.614;2023-04-23T08:26:23;19.00;70.60
3860;DHT22;1945;52.036;8.614;2023-04-23T08:28:50;18.80;90.70
3860;DHT22;1945;52.036;8.614;2023-04-23T08:31:18;18.90;97.40
3860;DHT22;1945;52.036;8.614;2023-04-23T08:33:47;18.90;99.90
3860;DHT22;1945;52.036;8.614;2023-04-23T08:36:14;19.30;99.90
3860;DHT22;1945;52.036;8.614;2023-04-23T08:38:40;18.90;99.90
3860;DHT22;1945;52.036;8.614;2023-04-23T08:41:10;19.10;99.90
3860;DHT22;1945;52.036;8.614;2023-04-23T08:43:46;18.80;99.90
3860;DHT22;1945;52.036;8.614;2023-04-23T08:46:16;18.80;99.90
3860;DHT22;1945;52.036;8.614;2023-04-23T08:48:43;18.90;99.90
3860;DHT22;1945;52.036;8.614;2023-04-23T08:51:17;18.90;99.90
3860;DHT22;1945;52.036;8.614;2023-04-23T08:53:49;19.20;99.90
3860;DHT22;1945;52.036;8.614;2023-04-23T08:56:16;18.90;99.90
3860;DHT22;1945;52.036;8.614;2023-04-23T08:58:44;19.00;99.90
3860;DHT22;1945;52.036;8.614;2023-04-23T09:01:12;19.20;99.90
3860;DHT22;1945;52.036;8.614;2023-04-23T09:03:39;19.00;99.90
3860;DHT22;1945;52.036;8.614;2023-04-23T09:06:07;19.50;99.90
3860;DHT22;1945;52.036;8.614;2023-04-23T09:08:36;19.70;99.90
3860;DHT22;1945;52.036;8.614;2023-04-23T09:11:04;19.70;99.90
3860;DHT22;1945;52.036;8.614;2023-04-23T09:13:32;19.50;99.90
3860;DHT22;1945;52.036;8.614;2023-04-23T09:16:00;19.70;99.90
3860;DHT22;1945;52.036;8.614;2023-04-23T09:18:27;19.50;99.90
3860;DHT22;1945;52.036;8.614;2023-04-23T09:20:54;19.60;99.90
3860;DHT22;1945;52.036;8.614;2023-04-23T09:23:21;19.70;99.90
3860;DHT22;1945;52.036;8.614;2023-04-23T09:25:49;19.90;99.90
3860;DHT22;1945;52.036;8.614;2023-04-23T09:28:17;19.80;99.90
3860;DHT22;1945;52.036;8.614;2023-04-23T09:30:44;19.80;99.90
3860;DHT22;1945;52.036;8.614;2023-04-23T09:33:11;19.80;99.90
3860;DHT22;1945;52.036;8.614;2023-04-23T09:35:38;20.00;99.90
3860;DHT22;1945;52.036;8.614;2023-04-23T09:38:06;19.90;99.90
3860;DHT22;1945;52.036;8.614;2023-04-23T09:40:35;19.80;99.90
3860;DHT22;1945;52.036;8.614;2023-04-23T09:43:04;20.10;99.90
3860;DHT22;1945;52.036;8.614;2023-04-23T09:45:31;19.90;99.90
3860;DHT22;1945;52.036;8.614;2023-04-23T09:47:59;19.80;99.90
3860;DHT22;1945;52.036;8.614;2023-04-23T09:50:32;19.70;99.90
3860;DHT22;1945;52.036;8.614;2023-04-23T09:52:58;19.90;99.90
3860;DHT22;1945;52.036;8.614;2023-04-23T09:55:29;19.90;99.90
3860;DHT22;1945;52.036;8.614;2023-04-23T09:58:00;20.00;99.90
3860;DHT22;1945;52.036;8.614;2023-04-23T10:00:32;19.30;99.90
3860;DHT22;1945;52.036;8.614;2023-04-23T10:02:59;19.70;99.90
3860;DHT22;1945;52.036;8.614;2023-04-23T10:05:26;19.70;99.90
3860;DHT22;1945;52.036;8.614;2023-04-23T10:07:54;19.10;99.90
3860;DHT22;1945;52.036;8.614;2023-04-23T10:10:22;18.80;99.90
3860;DHT22;1945;52.036;8.614;2023-04-23T10:12:51;18.70;99.90
3860;DHT22;1945;52.036;8.614;2023-04-23T10:15:18;18.90;99.90
3860;DHT22;1945;52.036;8.614;2023-04-23T10:17:46;18.80;99.90
3860;DHT22;1945;52.036;8.614;2023-04-23T10:20:13;18.80;99.90
3860;DHT22;1945;52.036;8.614;2023-04-23T10:22:43;18.60;99.90
3860;DHT22;1945;52.036;8.614;2023-04-23T10:25:11;18.40;99.90
3860;DHT22;1945;52.036;8.614;2023-04-23T10:27:41;18.30;99.90
3860;DHT22;1945;52.036;8.614;2023-04-23T10:30:09;18.30;99.90
3860;DHT22;1945;52.036;8.614;2023-04-23T10:32:37;18.50;99.90
3860;DHT22;1945;52.036;8.614;2023-04-23T10:35:07;18.20;99.90
3860;DHT22;1945;52.036;8.614;2023-04-23T10:37:35;18.10;99.90
3860;DHT22;1945;52.036;8.614;2023-04-23T10:40:05;18.10;99.90
3860;DHT22;1945;52.036;8.614;2023-04-23T10:42:36;19.00;99.90
3860;DHT22;1945;52.036;8.614;2023-04-23T10:45:11;19.90;99.90
3860;DHT22;1945;52.036;8.614;2023-04-23T10:47:37;19.80;99.90
3860;DHT22;1945;52.036;8.614;2023-04-23T10:50:19;19.50;99.90
3860;DHT22;1945;52.036;8.614;2023-04-23T10:52:46;19.60;99.90
3860;DHT22;1945;52.036;8.614;2023-04-23T10:55:19;19.90;99.90
3860;DHT22;1945;52.036;8.614;2023-04-23T10:58:00;19.70;99.90
3860;DHT22;1945;52.036;8.614;2023-04-23T11:00:28;19.60;99.90
3860;DHT22;1945;52.036;8.614;2023-04-23T11:02:55;19.60;99.90
3860;DHT22;1945;52.036;8.614;2023-04-23T11:05:23;19.60;99.90
3860;DHT22;1945;52.036;8.614;2023-04-23T11:08:02;20.20;99.90
3860;DHT22;1945;52.036;8.614;2023-04-23T11:10:30;20.40;99.90
3860;DHT22;1945;52.036;8.614;2023-04-23T11:12:57;20.10;99.90
3860;DHT22;1945;52.036;8.614;2023-04-23T11:15:23;20.30;99.90
3860;DHT22;1945;52.036;8.614;2023-04-23T11:18:00;20.40;99.90
3860;DHT22;1945;52.036;8.614;2023-04-23T11:20:30;20.80;99.90
3860;DHT22;1945;52.036;8.614;2023-04-23T11:22:57;19.90;99.90
3860;DHT22;1945;52.036;8.614;2023-04-23T11:25:25;19.60;99.90
3860;DHT22;1945;52.036;8.614;2023-04-23T11:27:54;19.20;99.90
3860;DHT22;1945;52.036;8.614;2023-04-23T11:30:22;19.30;99.90
3860;DHT22;1945;52.036;8.614;2023-04-23T11:32:50;19.00;99.90
3860;DHT22;1945;52.036;8.614;2023-04-23T11:35:19;19.00;99.90
3860;DHT22;1945;52.036;8.614;2023-04-23T11:37:47;19.00;99.90
3860;DHT22;1945;52.036;8.614;2023-04-23T11:40:15;19.50;99.90
3860;DHT22;1945;52.036;8.614;2023-04-23T11:42:44;19.50;99.90
3860;DHT22;1945;52.036;8.614;2023-04-23T11:45:19;19.60;99.90
3860;DHT22;1945;52.036;8.614;2023-04-23T11:47:48;19.90;99.90
3860;DHT22;1945;52.036;8.614;2023-04-23T11:50:18;19.70;99.90
3860;DHT22;1945;52.036;8.614;2023-04-23T11:52:47;19.80;99.90
3860;DHT22;1945;52.036;8.614;2023-04-23T11:55:14;19.80;99.90
3860;DHT22;1945;52.036;8.614;2023-04-23T11:57:41;19.80;99.90
3860;DHT22;1945;52.036;8.614;2023-04-23T12:00:13;20.10;99.90
3860;DHT22;1945;52.036;8.614;2023-04-23T12:02:52;20.10;99.90
3860;DHT22;1945;52.036;8.614;2023-04-23T12:05:21;19.90;99.90
3860;DHT22;1945;52.036;8.614;2023-04-23T12:07:50;20.00;99.90
3860;DHT22;1945;52.036;8.614;2023-04-23T12:10:18;19.90;99.90
3860;DHT22;1945;52.036;8.614;2023-04-23T12:12:49;20.00;99.90
3860;DHT22;1945;52.036;8.614;2023-04-23T12:15:17;19.90;99.90
3860;DHT22;1945;52.036;8.614;2023-04-23T12:17:47;19.80;99.90
3860;DHT22;1945;52.036;8.614;2023-04-23T12:20:18;19.80;99.90
3860;DHT22;1945;52.036;8.614;2023-04-23T12:22:46;19.90;99.90
3860;DHT22;1945;52.036;8.614;2023-04-23T12:25:14;19.90;99.90
3860;DHT22;1945;52.036;8.614;2023-04-23T12:27:43;19.60;99.90
3860;DHT22;1945;52.036;8.614;2023-04-23T12:30:11;19.70;99.90
3860;DHT22;1945;52.036;8.614;2023-04-23T12:32:40;20.00;99.90
3860;DHT22;1945;52.036;8.614;2023-04-23T12:35:07;19.90;99.90
3860;DHT22;1945;52.036;8.614;2023-04-23T12:37:36;20.00;99.90
3860;DHT22;1945;52.036;8.614;2023-04-23T12:40:03;20.00;99.90
3860;DHT22;1945;52.036;8.614;2023-04-23T12:42:33;20.20;99.90
3860;DHT22;1945;52.036;8.614;2023-04-23T12:45:08;20.40;99.90
3860;DHT22;1945;52.036;8.614;2023-04-23T12:47:35;20.10;99.90
3860;DHT22;1945;52.036;8.614;2023-04-23T12:50:02;20.30;99.90
3860;DHT22;1945;52.036;8.614;2023-04-23T12:52:30;20.40;99.90
3860;DHT22;1945;52.036;8.614;2023-04-23T12:54:56;20.70;99.90
3860;DHT22;1945;52.036;8.614;2023-04-23T12:57:25;21.10;99.90
3860;DHT22;1945;52.036;8.614;2023-04-23T12:59:53;20.80;99.90
3860;DHT22;1945;52.036;8.614;2023-04-23T13:02:21;20.80;99.90
3860;DHT22;1945;52.036;8.614;2023-04-23T13:04:48;20.80;99.90
3860;DHT22;1945;52.036;8.614;2023-04-23T13:07:15;20.70;99.90
3860;DHT22;1945;52.036;8.614;2023-04-23T13:09:42;20.70;99.90
3860;DHT22;1945;52.036;8.614;2023-04-23T13:12:08;20.40;99.90
3860;DHT22;1945;52.036;8.614;2023-04-23T13:14:35;20.60;99.90
3860;DHT22;1945;52.036;8.614;2023-04-23T13:17:03;20.80;99.90
3860;DHT22;1945;52.036;8.614;2023-04-23T13:19:30;20.80;99.90
3860;DHT22;1945;52.036;8.614;2023-04-23T13:21:58;21.00;99.90
3860;DHT22;1945;52.036;8.614;2023-04-23T13:24:25;20.80;99.90
3860;DHT22;1945;52.036;8.614;2023-04-23T13:26:51;20.50;99.90
3860;DHT22;1945;52.036;8.614;2023-04-23T13:29:18;20.40;99.90
3860;DHT22;1945;52.036;8.614;2023-04-23T13:31:45;20.60;99.90
3860;DHT22;1945;52.036;8.614;2023-04-23T13:34:13;20.40;99.90
3860;DHT22;1945;52.036;8.614;2023-04-23T13:36:40;20.50;99.90
3860;DHT22;1945;52.036;8.614;2023-04-23T13:39:07;20.60;99.90
3860;DHT22;1945;52.036;8.614;2023-04-23T13:41:34;20.30;99.90
3860;DHT22;1945;52.036;8.614;2023-04-23T13:44:01;20.40;99.90
3860;DHT22;1945;52.036;8.614;2023-04-23T13:46:28;20.30;99.90
3860;DHT22;1945;52.036;8.614;2023-04-23T13:48:55;20.50;99.90
3860;DHT22;1945;52.036;8.614;2023-04-23T13:51:23;20.60;99.90
3860;DHT22;1945;52.036;8.614;2023-04-23T13:53:50;20.70;99.90
3860;DHT22;1945;52.036;8.614;2023-04-23T13:56:17;20.70;99.90
3860;DHT22;1945;52.036;8.614;2023-04-23T13:58:44;20.40;36.40
3860;DHT22;1945;52.036;8.614;2023-04-23T14:01:12;20.50;43.00
3860;DHT22;1945;52.036;8.614;2023-04-23T14:03:40;20.30;27.80
3860;DHT22;1945;52.036;8.614;2023-04-23T14:06:07;20.70;46.40
3860;DHT22;1945;52.036;8.614;2023-04-23T14:08:35;20.90;38.70
3860;DHT22;1945;52.036;8.614;2023-04-23T14:11:02;21.30;54.00
3860;DHT22;1945;52.036;8.614;2023-04-23T14:13:30;21.10;24.30
3860;DHT22;1945;52.036;8.614;2023-04-23T14:15:57;20.90;8.60
3860;DHT22;1945;52.036;8.614;2023-04-23T14:18:24;20.50;5.90
3860;DHT22;1945;52.036;8.614;2023-04-23T14:20:52;20.40;1.00
3860;DHT22;1945;52.036;8.614;2023-04-23T14:23:43;20.20;1.00
3860;DHT22;1945;52.036;8.614;2023-04-23T14:26:21;20.20;1.00
3860;DHT22;1945;52.036;8.614;2023-04-23T14:28:50;19.90;1.40
3860;DHT22;1945;52.036;8.614;2023-04-23T14:31:17;19.70;1.00
3860;DHT22;1945;52.036;8.614;2023-04-23T14:33:44;19.70;5.10
3860;DHT22;1945;52.036;8.614;2023-04-23T14:36:13;19.70;4.40
3860;DHT22;1945;52.036;8.614;2023-04-23T14:38:39;19.60;12.70
3860;DHT22;1945;52.036;8.614;2023-04-23T14:41:07;19.80;40.90
3860;DHT22;1945;52.036;8.614;2023-04-23T14:43:34;19.70;41.40
3860;DHT22;1945;52.036;8.614;2023-04-23T14:46:02;19.50;45.00
3860;DHT22;1945;52.036;8.614;2023-04-23T14:48:31;18.30;58.30
3860;DHT22;1945;52.036;8.614;2023-04-23T14:50:58;17.80;99.90
3860;DHT22;1945;52.036;8.614;2023-04-23T14:53:24;17.80;99.90
3860;DHT22;1945;52.036;8.614;2023-04-23T14:55:51;18.00;99.90
3860;DHT22;1945;52.036;8.614;2023-04-23T14:58:19;18.40;99.90
3860;DHT22;1945;52.036;8.614;2023-04-23T15:00:46;18.50;99.90
3860;DHT22;1945;52.036;8.614;2023-04-23T15:03:14;18.60;99.90
3860;DHT22;1945;52.036;8.614;2023-04-23T15:05:41;18.60;99.90
3860;DHT22;1945;52.036;8.614;2023-04-23T15:08:07;18.80;99.90
3860;DHT22;1945;52.036;8.614;2023-04-23T15:10:34;18.70;99.90
3860;DHT22;1945;52.036;8.614;2023-04-23T15:13:05;18.70;99.90
3860;DHT22;1945;52.036;8.614;2023-04-23T15:15:42;18.70;99.90
3860;DHT22;1945;52.036;8.614;2023-04-23T15:18:10;18.70;99.90
3860;DHT22;1945;52.036;8.614;2023-04-23T15:20:36;18.80;99.90
3860;DHT22;1945;52.036;8.614;2023-04-23T15:23:03;19.00;99.90
3860;DHT22;1945;52.036;8.614;2023-04-23T15:25:30;19.00;99.90
3860;DHT22;1945;52.036;8.614;2023-04-23T15:27:59;18.90;99.90
3860;DHT22;1945;52.036;8.614;2023-04-23T15:30:26;18.60;99.90
3860;DHT22;1945;52.036;8.614;2023-04-23T15:32:54;18.80;99.90
3860;DHT22;1945;52.036;8.614;2023-04-23T15:35:21;18.70;99.90
3860;DHT22;1945;52.036;8.614;2023-04-23T15:37:48;18.70;99.90
3860;DHT22;1945;52.036;8.614;2023-04-23T15:40:15;18.70;99.90
3860;DHT22;1945;52.036;8.614;2023-04-23T15:42:42;18.60;99.90
3860;DHT22;1945;52.036;8.614;2023-04-23T15:45:10;18.30;99.90
3860;DHT22;1945;52.036;8.614;2023-04-23T15:47:37;17.30;1.00
3860;DHT22;1945;52.036;8.614;2023-04-23T15:50:07;16.90;1.00
3860;DHT22;1945;52.036;8.614;2023-04-23T15:52:34;16.90;1.00
3860;DHT22;1945;52.036;8.614;2023-04-23T15:55:01;16.60;1.00
3860;DHT22;1945;52.036;8.614;2023-04-23T15:57:29;16.70;1.00
3860;DHT22;1945;52.036;8.614;2023-04-23T15:59:56;17.00;99.90
3860;DHT22;1945;52.036;8.614;2023-04-23T16:02:24;17.10;1.00
3860;DHT22;1945;52.036;8.614;2023-04-23T16:04:51;17.20;1.00
3860;DHT22;1945;52.036;8.614;2023-04-23T16:07:19;17.20;1.00
3860;DHT22;1945;52.036;8.614;2023-04-23T16:09:46;17.40;1.00
3860;DHT22;1945;52.036;8.614;2023-04-23T16:12:13;17.20;1.00